createdAt,value
2018-12-17T00:00:38.539Z,1007.99
2018-12-17T00:01:38.497Z,1007.97
2018-12-17T00:02:38.476Z,1007.94
2018-12-17T00:03:38.448Z,1007.99
2018-12-17T00:04:38.433Z,1008.00
2018-12-17T00:05:41.675Z,1008.01
2018-12-17T00:06:38.369Z,1008.06
2018-12-17T00:07:38.344Z,1008.01
2018-12-17T00:08:38.315Z,1008.03
2018-12-17T00:09:38.302Z,1008.02
2018-12-17T00:10:38.268Z,1008.02
2018-12-17T00:11:38.237Z,1008.05
2018-12-17T00:12:38.219Z,1008.07
2018-12-17T00:13:38.188Z,1008.07
2018-12-17T00:14:38.161Z,1008.05
2018-12-17T00:15:38.140Z,1008.03
2018-12-17T00:16:38.110Z,1008.01
2018-12-17T00:17:38.084Z,1008.00
2018-12-17T00:18:38.058Z,1008.00
2018-12-17T00:19:38.031Z,1008.03
2018-12-17T00:20:38.006Z,1008.03
2018-12-17T00:21:37.980Z,1008.06
2018-12-17T00:22:37.953Z,1008.07
2018-12-17T00:23:37.927Z,1008.07
2018-12-17T00:24:37.900Z,1008.07
2018-12-17T00:25:37.875Z,1008.05
2018-12-17T00:26:37.851Z,1008.10
2018-12-17T00:27:37.824Z,1008.11
2018-12-17T00:28:37.800Z,1008.08
2018-12-17T00:29:37.772Z,1008.11
2018-12-17T00:30:37.746Z,1008.14
2018-12-17T00:31:37.720Z,1008.11
2018-12-17T00:32:37.694Z,1008.17
2018-12-17T00:33:37.678Z,1008.20
2018-12-17T00:34:37.642Z,1008.20
2018-12-17T00:35:37.617Z,1008.18
2018-12-17T00:36:37.590Z,1008.21
2018-12-17T00:37:37.568Z,1008.18
2018-12-17T00:38:37.540Z,1008.17
2018-12-17T00:39:37.512Z,1008.18
2018-12-17T00:40:37.488Z,1008.18
2018-12-17T00:41:37.463Z,1008.20
2018-12-17T00:42:37.437Z,1008.20
2018-12-17T00:43:37.410Z,1008.20
2018-12-17T00:44:37.384Z,1008.20
2018-12-17T00:45:37.402Z,1008.24
2018-12-17T00:46:37.335Z,1008.23
2018-12-17T00:47:37.305Z,1008.22
2018-12-17T00:48:37.290Z,1008.22
2018-12-17T00:49:37.254Z,1008.26
2018-12-17T00:50:37.230Z,1008.23
2018-12-17T00:51:37.201Z,1008.25
2018-12-17T00:52:37.177Z,1008.20
2018-12-17T00:53:37.152Z,1008.24
2018-12-17T00:54:37.131Z,1008.32
2018-12-17T00:55:37.099Z,1008.29
2018-12-17T00:56:37.076Z,1008.25
2018-12-17T00:57:37.049Z,1008.29
2018-12-17T00:58:37.023Z,1008.30
2018-12-17T00:59:36.996Z,1008.28
2018-12-17T01:00:36.973Z,1008.33
2018-12-17T01:01:36.945Z,1008.32
2018-12-17T01:02:36.918Z,1008.32
2018-12-17T01:03:36.896Z,1008.30
2018-12-17T01:04:36.866Z,1008.34
2018-12-17T01:05:36.843Z,1008.34
2018-12-17T01:06:36.826Z,1008.36
2018-12-17T01:07:36.788Z,1008.35
2018-12-17T01:08:36.761Z,1008.38
2018-12-17T01:09:36.742Z,1008.36
2018-12-17T01:10:36.711Z,1008.36
2018-12-17T01:11:36.683Z,1008.37
2018-12-17T01:12:36.661Z,1008.38
2018-12-17T01:13:36.638Z,1008.38
2018-12-17T01:14:36.606Z,1008.40
2018-12-17T01:15:36.579Z,1008.35
2018-12-17T01:16:36.554Z,1008.35
2018-12-17T01:17:36.530Z,1008.37
2018-12-17T01:18:36.503Z,1008.34
2018-12-17T01:19:36.553Z,1008.35
2018-12-17T01:20:36.451Z,1008.37
2018-12-17T01:21:36.425Z,1008.39
2018-12-17T01:22:36.401Z,1008.42
2018-12-17T01:23:36.380Z,1008.39
2018-12-17T01:24:36.347Z,1008.40
2018-12-17T01:25:36.328Z,1008.39
2018-12-17T01:26:36.293Z,1008.37
2018-12-17T01:27:36.268Z,1008.35
2018-12-17T01:28:36.242Z,1008.36
2018-12-17T01:29:36.217Z,1008.41
2018-12-17T01:30:36.196Z,1008.41
2018-12-17T01:31:36.168Z,1008.39
2018-12-17T01:32:36.145Z,1008.41
2018-12-17T01:33:36.111Z,1008.41
2018-12-17T01:34:36.091Z,1008.47
2018-12-17T01:35:36.062Z,1008.47
2018-12-17T01:36:36.035Z,1008.48
2018-12-17T01:37:36.009Z,1008.45
2018-12-17T01:38:35.990Z,1008.44
2018-12-17T01:39:35.957Z,1008.44
2018-12-17T01:40:35.930Z,1008.49
2018-12-17T01:41:35.906Z,1008.47
2018-12-17T01:42:35.887Z,1008.46
2018-12-17T01:43:35.853Z,1008.47
2018-12-17T01:44:35.826Z,1008.50
2018-12-17T01:45:35.801Z,1008.50
2018-12-17T01:46:35.774Z,1008.52
2018-12-17T01:47:35.749Z,1008.52
2018-12-17T01:48:35.720Z,1008.55
2018-12-17T01:49:35.701Z,1008.54
2018-12-17T01:50:35.673Z,1008.52
2018-12-17T01:51:35.647Z,1008.50
2018-12-17T01:52:35.617Z,1008.47
2018-12-17T01:53:35.595Z,1008.48
2018-12-17T01:54:35.567Z,1008.44
2018-12-17T01:55:35.542Z,1008.45
2018-12-17T01:56:35.514Z,1008.42
2018-12-17T01:57:35.492Z,1008.43
2018-12-17T01:58:35.462Z,1008.44
2018-12-17T01:59:35.437Z,1008.45
2018-12-17T02:00:35.408Z,1008.41
2018-12-17T02:01:35.386Z,1008.42
2018-12-17T02:02:35.361Z,1008.42
2018-12-17T02:03:35.333Z,1008.43
2018-12-17T02:04:35.307Z,1008.40
2018-12-17T02:05:35.279Z,1008.42
2018-12-17T02:06:35.253Z,1008.41
2018-12-17T02:07:35.231Z,1008.43
2018-12-17T02:08:35.201Z,1008.43
2018-12-17T02:09:35.180Z,1008.43
2018-12-17T02:10:35.149Z,1008.42
2018-12-17T02:11:35.126Z,1008.47
2018-12-17T02:12:35.097Z,1008.49
2018-12-17T02:13:35.072Z,1008.48
2018-12-17T02:14:35.048Z,1008.54
2018-12-17T02:15:35.020Z,1008.51
2018-12-17T02:16:34.993Z,1008.50
2018-12-17T02:17:34.973Z,1008.46
2018-12-17T02:18:34.941Z,1008.46
2018-12-17T02:19:34.916Z,1008.45
2018-12-17T02:20:34.893Z,1008.47
2018-12-17T02:21:34.867Z,1008.48
2018-12-17T02:22:34.838Z,1008.47
2018-12-17T02:23:34.811Z,1008.49
2018-12-17T02:24:34.786Z,1008.47
2018-12-17T02:25:34.762Z,1008.47
2018-12-17T02:26:34.734Z,1008.50
2018-12-17T02:27:34.719Z,1008.50
2018-12-17T02:28:36.236Z,1008.45
2018-12-17T02:29:34.659Z,1008.42
2018-12-17T02:30:34.632Z,1008.43
2018-12-17T02:31:34.605Z,1008.40
2018-12-17T02:32:34.577Z,1008.44
2018-12-17T02:33:34.552Z,1008.41
2018-12-17T02:34:34.528Z,1008.42
2018-12-17T02:35:34.506Z,1008.37
2018-12-17T02:36:34.477Z,1008.39
2018-12-17T02:37:34.453Z,1008.40
2018-12-17T02:38:34.423Z,1008.42
2018-12-17T02:39:34.395Z,1008.45
2018-12-17T02:40:34.370Z,1008.43
2018-12-17T02:41:34.345Z,1008.44
2018-12-17T02:42:34.322Z,1008.44
2018-12-17T02:43:34.292Z,1008.47
2018-12-17T02:44:34.271Z,1008.50
2018-12-17T02:45:34.241Z,1008.47
2018-12-17T02:46:34.216Z,1008.42
2018-12-17T02:47:34.187Z,1008.40
2018-12-17T02:48:34.210Z,1008.40
2018-12-17T02:49:34.135Z,1008.45
2018-12-17T02:50:34.119Z,1008.45
2018-12-17T02:51:34.084Z,1008.45
2018-12-17T02:52:34.058Z,1008.49
2018-12-17T02:53:34.033Z,1008.53
2018-12-17T02:54:34.007Z,1008.52
2018-12-17T02:55:33.982Z,1008.53
2018-12-17T02:56:33.955Z,1008.57
2018-12-17T02:57:33.928Z,1008.52
2018-12-17T02:58:33.905Z,1008.54
2018-12-17T02:59:33.878Z,1008.51
2018-12-17T03:00:33.853Z,1008.52
2018-12-17T03:01:33.829Z,1008.50
2018-12-17T03:02:33.801Z,1008.57
2018-12-17T03:03:33.774Z,1008.55
2018-12-17T03:04:33.747Z,1008.55
2018-12-17T03:05:33.721Z,1008.49
2018-12-17T03:06:33.696Z,1008.51
2018-12-17T03:07:33.676Z,1008.54
2018-12-17T03:08:33.645Z,1008.53
2018-12-17T03:09:33.618Z,1008.54
2018-12-17T03:10:33.595Z,1008.56
2018-12-17T03:11:33.564Z,1008.56
2018-12-17T03:12:33.539Z,1008.57
2018-12-17T03:13:33.514Z,1008.55
2018-12-17T03:14:33.489Z,1008.54
2018-12-17T03:15:33.461Z,1008.55
2018-12-17T03:16:33.437Z,1008.53
2018-12-17T03:17:33.419Z,1008.54
2018-12-17T03:18:33.424Z,1008.52
2018-12-17T03:19:33.362Z,1008.51
2018-12-17T03:20:33.336Z,1008.58
2018-12-17T03:21:33.308Z,1008.60
2018-12-17T03:22:33.282Z,1008.60
2018-12-17T03:23:33.315Z,1008.60
2018-12-17T03:24:33.233Z,1008.62
2018-12-17T03:25:33.207Z,1008.62
2018-12-17T03:26:33.184Z,1008.59
2018-12-17T03:27:33.152Z,1008.63
2018-12-17T03:28:33.126Z,1008.62
2018-12-17T03:29:33.104Z,1008.65
2018-12-17T03:30:33.078Z,1008.62
2018-12-17T03:31:33.051Z,1008.67
2018-12-17T03:32:33.026Z,1008.66
2018-12-17T03:33:32.996Z,1008.66
2018-12-17T03:34:32.974Z,1008.67
2018-12-17T03:35:32.948Z,1008.61
2018-12-17T03:36:32.927Z,1008.66
2018-12-17T03:37:32.894Z,1008.70
2018-12-17T03:38:32.871Z,1008.67
2018-12-17T03:39:32.852Z,1008.70
2018-12-17T03:40:32.816Z,1008.68
2018-12-17T03:41:32.793Z,1008.68
2018-12-17T03:42:32.766Z,1008.65
2018-12-17T03:43:32.738Z,1008.68
2018-12-17T03:44:32.712Z,1008.67
2018-12-17T03:45:32.687Z,1008.67
2018-12-17T03:46:32.662Z,1008.66
2018-12-17T03:47:32.638Z,1008.64
2018-12-17T03:48:32.608Z,1008.68
2018-12-17T03:49:32.590Z,1008.69
2018-12-17T03:50:32.559Z,1008.72
2018-12-17T03:51:32.532Z,1008.74
2018-12-17T03:52:32.509Z,1008.71
2018-12-17T03:53:32.479Z,1008.76
2018-12-17T03:54:32.455Z,1008.80
2018-12-17T03:55:32.431Z,1008.79
2018-12-17T03:56:32.405Z,1008.85
2018-12-17T03:57:32.376Z,1008.84
2018-12-17T03:58:32.349Z,1008.87
2018-12-17T03:59:32.323Z,1008.86
2018-12-17T04:00:32.300Z,1008.81
2018-12-17T04:01:32.274Z,1008.81
2018-12-17T04:02:32.256Z,1008.84
2018-12-17T04:03:32.222Z,1008.83
2018-12-17T04:04:32.193Z,1008.83
2018-12-17T04:05:32.169Z,1008.82
2018-12-17T04:06:32.151Z,1008.83
2018-12-17T04:07:32.123Z,1008.78
2018-12-17T04:08:32.092Z,1008.75
2018-12-17T04:09:32.066Z,1008.83
2018-12-17T04:10:32.043Z,1008.83
2018-12-17T04:11:32.020Z,1008.87
2018-12-17T04:12:31.991Z,1008.82
2018-12-17T04:13:31.967Z,1008.85
2018-12-17T04:14:31.939Z,1008.78
2018-12-17T04:15:31.910Z,1008.80
2018-12-17T04:16:31.885Z,1008.80
2018-12-17T04:17:31.860Z,1008.76
2018-12-17T04:18:31.834Z,1008.79
2018-12-17T04:19:31.804Z,1008.81
2018-12-17T04:20:31.782Z,1008.78
2018-12-17T04:21:31.756Z,1008.79
2018-12-17T04:22:31.729Z,1008.75
2018-12-17T04:23:31.701Z,1008.76
2018-12-17T04:24:31.680Z,1008.74
2018-12-17T04:25:31.652Z,1008.77
2018-12-17T04:26:31.635Z,1008.78
2018-12-17T04:27:31.600Z,1008.77
2018-12-17T04:28:31.577Z,1008.72
2018-12-17T04:29:31.552Z,1008.73
2018-12-17T04:30:31.528Z,1008.74
2018-12-17T04:31:31.495Z,1008.79
2018-12-17T04:32:31.469Z,1008.80
2018-12-17T04:33:31.448Z,1008.77
2018-12-17T04:34:31.450Z,1008.77
2018-12-17T04:35:31.393Z,1008.81
2018-12-17T04:36:31.366Z,1008.85
2018-12-17T04:37:31.340Z,1008.86
2018-12-17T04:38:31.316Z,1008.87
2018-12-17T04:39:31.287Z,1008.91
2018-12-17T04:40:31.265Z,1008.91
2018-12-17T04:41:31.238Z,1008.88
2018-12-17T04:42:31.211Z,1008.95
2018-12-17T04:43:31.184Z,1008.95
2018-12-17T04:44:31.161Z,1008.93
2018-12-17T04:45:31.134Z,1008.90
2018-12-17T04:46:31.109Z,1008.92
2018-12-17T04:47:31.081Z,1008.98
2018-12-17T04:48:31.061Z,1008.98
2018-12-17T04:49:31.032Z,1008.99
2018-12-17T04:50:31.004Z,1009.00
2018-12-17T04:51:30.980Z,1009.00
2018-12-17T04:52:30.955Z,1009.01
2018-12-17T04:53:30.925Z,1009.02
2018-12-17T04:54:30.902Z,1009.02
2018-12-17T04:55:30.882Z,1009.02
2018-12-17T04:56:30.848Z,1008.99
2018-12-17T04:57:30.828Z,1009.00
2018-12-17T04:58:30.805Z,1009.01
2018-12-17T04:59:30.771Z,1008.98
2018-12-17T05:00:30.745Z,1008.93
2018-12-17T05:01:30.722Z,1008.97
2018-12-17T05:02:30.694Z,1008.97
2018-12-17T05:03:30.668Z,1009.00
2018-12-17T05:04:30.645Z,1009.00
2018-12-17T05:05:30.615Z,1009.01
2018-12-17T05:06:30.590Z,1009.03
2018-12-17T05:07:30.562Z,1009.04
2018-12-17T05:08:30.537Z,1009.03
2018-12-17T05:09:30.514Z,1009.04
2018-12-17T05:10:30.521Z,1009.03
2018-12-17T05:11:30.458Z,1009.00
2018-12-17T05:12:30.435Z,1009.04
2018-12-17T05:13:30.407Z,1009.06
2018-12-17T05:14:30.379Z,1009.06
2018-12-17T05:15:30.354Z,1009.11
2018-12-17T05:16:30.329Z,1009.13
2018-12-17T05:17:30.310Z,1009.12
2018-12-17T05:18:30.285Z,1009.12
2018-12-17T05:19:30.252Z,1009.12
2018-12-17T05:20:30.226Z,1009.08
2018-12-17T05:21:30.210Z,1009.07
2018-12-17T05:22:30.182Z,1009.10
2018-12-17T05:23:30.148Z,1009.14
2018-12-17T05:24:30.123Z,1009.13
2018-12-17T05:25:30.097Z,1009.14
2018-12-17T05:26:30.072Z,1009.10
2018-12-17T05:27:30.042Z,1009.16
2018-12-17T05:28:30.028Z,1009.09
2018-12-17T05:29:29.991Z,1009.13
2018-12-17T05:30:29.967Z,1009.14
2018-12-17T05:31:29.941Z,1009.18
2018-12-17T05:32:31.398Z,1009.17
2018-12-17T05:33:29.893Z,1009.20
2018-12-17T05:34:29.864Z,1009.20
2018-12-17T05:35:30.096Z,1009.23
2018-12-17T05:36:29.813Z,1009.27
2018-12-17T05:37:29.792Z,1009.25
2018-12-17T05:38:30.077Z,1009.25
2018-12-17T05:39:29.968Z,1009.29
2018-12-17T05:40:29.742Z,1009.31
2018-12-17T05:41:29.687Z,1009.32
2018-12-17T05:42:29.659Z,1009.34
2018-12-17T05:43:29.950Z,1009.35
2018-12-17T05:44:29.922Z,1009.36
2018-12-17T05:45:29.622Z,1009.35
2018-12-17T05:46:29.765Z,1009.33
2018-12-17T05:47:29.840Z,1009.34
2018-12-17T05:48:29.499Z,1009.32
2018-12-17T05:49:29.472Z,1009.33
2018-12-17T05:50:29.456Z,1009.33
2018-12-17T05:51:29.747Z,1009.37
2018-12-17T05:52:29.715Z,1009.36
2018-12-17T05:53:29.375Z,1009.36
2018-12-17T05:54:29.349Z,1009.39
2018-12-17T05:55:30.050Z,1009.37
2018-12-17T05:56:29.623Z,1009.40
2018-12-17T05:57:29.593Z,1009.38
2018-12-17T05:58:29.444Z,1009.40
2018-12-17T05:59:29.948Z,1009.40
2018-12-17T06:00:29.521Z,1009.42
2018-12-17T06:01:29.694Z,1009.40
2018-12-17T06:02:30.078Z,1009.42
2018-12-17T06:03:29.144Z,1009.40
2018-12-17T06:04:29.109Z,1009.40
2018-12-17T06:05:29.062Z,1009.42
2018-12-17T06:06:29.034Z,1009.40
2018-12-17T06:07:29.007Z,1009.38
2018-12-17T06:08:28.995Z,1009.38
2018-12-17T06:09:28.955Z,1009.41
2018-12-17T06:10:28.931Z,1009.43
2018-12-17T06:11:28.904Z,1009.44
2018-12-17T06:12:28.879Z,1009.45
2018-12-17T06:13:29.155Z,1009.48
2018-12-17T06:15:29.120Z,1009.51
2018-12-17T06:16:31.812Z,1009.53
2018-12-17T06:17:29.490Z,1009.50
2018-12-17T06:18:28.728Z,1009.53
2018-12-17T06:19:30.159Z,1009.53
2018-12-17T06:20:28.872Z,1009.53
2018-12-17T06:21:28.994Z,1009.53
2018-12-17T06:23:28.796Z,1009.52
2018-12-17T06:24:28.788Z,1009.56
2018-12-17T06:25:29.468Z,1009.55
2018-12-17T06:26:28.543Z,1009.53
2018-12-17T06:27:28.495Z,1009.60
2018-12-17T06:28:28.792Z,1009.59
2018-12-17T06:29:35.397Z,1009.64
2018-12-17T06:30:28.453Z,1009.61
2018-12-17T06:31:28.386Z,1009.62
2018-12-17T06:32:28.411Z,1009.64
2018-12-17T06:33:28.337Z,1009.69
2018-12-17T06:34:28.631Z,1009.66
2018-12-17T06:35:28.291Z,1009.71
2018-12-17T06:36:28.362Z,1009.73
2018-12-17T06:37:28.233Z,1009.70
2018-12-17T06:38:28.252Z,1009.71
2018-12-17T06:39:28.179Z,1009.71
2018-12-17T06:40:28.473Z,1009.73
2018-12-17T06:41:28.164Z,1009.69
2018-12-17T06:42:28.106Z,1009.70
2018-12-17T06:43:28.077Z,1009.73
2018-12-17T06:44:28.987Z,1009.71
2018-12-17T06:45:28.355Z,1009.68
2018-12-17T06:46:28.734Z,1009.68
2018-12-17T06:47:28.011Z,1009.70
2018-12-17T06:49:27.922Z,1009.73
2018-12-17T06:50:27.899Z,1009.75
2018-12-17T06:51:27.873Z,1009.75
2018-12-17T06:52:27.847Z,1009.75
2018-12-17T06:53:27.821Z,1009.82
2018-12-17T06:54:27.795Z,1009.79
2018-12-17T06:55:27.769Z,1009.80
2018-12-17T06:56:27.743Z,1009.80
2018-12-17T06:57:27.716Z,1009.83
2018-12-17T06:58:27.692Z,1009.83
2018-12-17T06:59:27.668Z,1009.84
2018-12-17T07:00:27.640Z,1009.87
2018-12-17T07:01:28.207Z,1009.89
2018-12-17T07:02:27.592Z,1009.88
2018-12-17T07:03:27.563Z,1009.89
2018-12-17T07:04:27.542Z,1009.91
2018-12-17T07:05:27.513Z,1009.92
2018-12-17T07:06:27.486Z,1009.92
2018-12-17T07:07:27.461Z,1009.98
2018-12-17T07:08:27.443Z,1009.95
2018-12-17T07:09:27.410Z,1009.96
2018-12-17T07:10:27.383Z,1009.96
2018-12-17T07:11:27.364Z,1010.02
2018-12-17T07:12:27.343Z,1009.99
2018-12-17T07:13:27.308Z,1009.97
2018-12-17T07:14:27.290Z,1009.97
2018-12-17T07:15:27.256Z,1009.96
2018-12-17T07:16:27.231Z,1009.99
2018-12-17T07:17:27.205Z,1009.96
2018-12-17T07:18:27.179Z,1009.98
2018-12-17T07:19:27.153Z,1009.99
2018-12-17T07:20:27.125Z,1009.95
2018-12-17T07:21:27.105Z,1009.98
2018-12-17T07:22:27.075Z,1009.97
2018-12-17T07:23:27.047Z,1010.00
2018-12-17T07:24:27.032Z,1010.01
2018-12-17T07:25:26.994Z,1009.99
2018-12-17T07:26:28.733Z,1010.00
2018-12-17T07:27:26.943Z,1009.99
2018-12-17T07:28:26.918Z,1010.04
2018-12-17T07:29:26.895Z,1010.06
2018-12-17T07:30:26.874Z,1010.07
2018-12-17T07:31:26.842Z,1010.08
2018-12-17T07:32:26.817Z,1010.11
2018-12-17T07:33:26.789Z,1010.14
2018-12-17T07:34:26.766Z,1010.15
2018-12-17T07:35:26.747Z,1010.18
2018-12-17T07:36:26.710Z,1010.16
2018-12-17T07:37:26.686Z,1010.14
2018-12-17T07:38:26.659Z,1010.16
2018-12-17T07:39:26.636Z,1010.17
2018-12-17T07:40:26.610Z,1010.18
2018-12-17T07:41:26.580Z,1010.23
2018-12-17T07:42:26.557Z,1010.22
2018-12-17T07:43:26.529Z,1010.20
2018-12-17T07:44:26.508Z,1010.26
2018-12-17T07:45:26.488Z,1010.27
2018-12-17T07:46:26.467Z,1010.24
2018-12-17T07:47:26.431Z,1010.23
2018-12-17T07:48:26.401Z,1010.25
2018-12-17T07:49:26.379Z,1010.26
2018-12-17T07:50:26.350Z,1010.24
2018-12-17T07:51:26.321Z,1010.22
2018-12-17T07:52:26.298Z,1010.21
2018-12-17T07:53:26.273Z,1010.23
2018-12-17T07:54:26.251Z,1010.26
2018-12-17T07:55:26.227Z,1010.25
2018-12-17T07:56:26.198Z,1010.32
2018-12-17T07:57:26.170Z,1010.31
2018-12-17T07:58:26.147Z,1010.33
2018-12-17T07:59:26.118Z,1010.33
2018-12-17T08:00:26.093Z,1010.35
2018-12-17T08:01:26.068Z,1010.38
2018-12-17T08:02:26.041Z,1010.36
2018-12-17T08:03:26.016Z,1010.40
2018-12-17T08:04:25.996Z,1010.41
2018-12-17T08:05:25.963Z,1010.42
2018-12-17T08:06:25.940Z,1010.44
2018-12-17T08:07:25.926Z,1010.42
2018-12-17T08:08:25.886Z,1010.45
2018-12-17T08:09:25.861Z,1010.45
2018-12-17T08:10:25.835Z,1010.49
2018-12-17T08:11:25.809Z,1010.44
2018-12-17T08:12:25.782Z,1010.45
2018-12-17T08:13:25.760Z,1010.46
2018-12-17T08:14:25.735Z,1010.43
2018-12-17T08:15:25.706Z,1010.44
2018-12-17T08:16:25.680Z,1010.43
2018-12-17T08:17:25.654Z,1010.49
2018-12-17T08:18:25.636Z,1010.44
2018-12-17T08:19:25.607Z,1010.44
2018-12-17T08:20:25.580Z,1010.39
2018-12-17T08:21:25.553Z,1010.41
2018-12-17T08:22:25.527Z,1010.47
2018-12-17T08:23:25.503Z,1010.46
2018-12-17T08:24:25.481Z,1010.49
2018-12-17T08:25:25.449Z,1010.48
2018-12-17T08:26:25.424Z,1010.51
2018-12-17T08:27:25.402Z,1010.50
2018-12-17T08:28:25.371Z,1010.56
2018-12-17T08:29:25.345Z,1010.55
2018-12-17T08:30:25.336Z,1010.53
2018-12-17T08:31:25.302Z,1010.52
2018-12-17T08:32:25.267Z,1010.53
2018-12-17T08:33:25.247Z,1010.54
2018-12-17T08:34:25.253Z,1010.64
2018-12-17T08:35:25.202Z,1010.58
2018-12-17T08:36:25.166Z,1010.59
2018-12-17T08:37:25.142Z,1010.61
2018-12-17T08:38:25.125Z,1010.64
2018-12-17T08:39:25.097Z,1010.62
2018-12-17T08:40:25.065Z,1010.65
2018-12-17T08:41:25.037Z,1010.66
2018-12-17T08:42:25.145Z,1010.68
2018-12-17T08:43:24.987Z,1010.70
2018-12-17T08:44:24.967Z,1010.70
2018-12-17T08:45:24.935Z,1010.68
2018-12-17T08:46:24.911Z,1010.70
2018-12-17T08:47:24.888Z,1010.73
2018-12-17T08:48:24.861Z,1010.70
2018-12-17T08:49:24.833Z,1010.68
2018-12-17T08:50:24.816Z,1010.70
2018-12-17T08:51:24.784Z,1010.75
2018-12-17T08:52:24.758Z,1010.71
2018-12-17T08:53:24.735Z,1010.72
2018-12-17T08:54:24.705Z,1010.72
2018-12-17T08:55:24.679Z,1010.73
2018-12-17T08:56:24.653Z,1010.73
2018-12-17T08:57:24.636Z,1010.74
2018-12-17T08:58:24.608Z,1010.73
2018-12-17T08:59:24.582Z,1010.76
2018-12-17T09:00:24.552Z,1010.79
2018-12-17T09:01:24.526Z,1010.74
2018-12-17T09:02:24.500Z,1010.78
2018-12-17T09:03:24.491Z,1010.76
2018-12-17T09:04:24.449Z,1010.77
2018-12-17T09:05:24.438Z,1010.76
2018-12-17T09:06:24.398Z,1010.76
2018-12-17T09:07:24.374Z,1010.77
2018-12-17T09:08:24.349Z,1010.77
2018-12-17T09:09:24.331Z,1010.79
2018-12-17T09:10:24.296Z,1010.77
2018-12-17T09:11:24.272Z,1010.82
2018-12-17T09:12:24.246Z,1010.81
2018-12-17T09:13:24.220Z,1010.82
2018-12-17T09:14:24.194Z,1010.84
2018-12-17T09:15:24.177Z,1010.87
2018-12-17T09:16:24.143Z,1010.84
2018-12-17T09:17:24.118Z,1010.88
2018-12-17T09:18:24.092Z,1010.84
2018-12-17T09:19:24.066Z,1010.84
2018-12-17T09:20:24.040Z,1010.84
2018-12-17T09:21:24.015Z,1010.87
2018-12-17T09:22:23.991Z,1010.91
2018-12-17T09:23:23.966Z,1010.89
2018-12-17T09:24:23.941Z,1010.94
2018-12-17T09:25:23.964Z,1010.96
2018-12-17T09:26:23.970Z,1010.94
2018-12-17T09:27:23.862Z,1010.95
2018-12-17T09:28:23.843Z,1010.99
2018-12-17T09:29:23.819Z,1011.02
2018-12-17T09:30:23.787Z,1010.96
2018-12-17T09:31:23.761Z,1011.00
2018-12-17T09:32:23.735Z,1011.00
2018-12-17T09:33:23.716Z,1010.95
2018-12-17T09:34:23.684Z,1010.98
2018-12-17T09:35:23.660Z,1011.03
2018-12-17T09:36:23.634Z,1011.04
2018-12-17T09:37:23.617Z,1011.04
2018-12-17T09:38:23.585Z,1011.05
2018-12-17T09:39:23.559Z,1011.08
2018-12-17T09:40:23.536Z,1011.08
2018-12-17T09:41:23.506Z,1011.06
2018-12-17T09:42:23.585Z,1011.07
2018-12-17T09:43:23.460Z,1011.12
2018-12-17T09:44:23.432Z,1011.12
2018-12-17T09:45:23.407Z,1011.15
2018-12-17T09:46:23.382Z,1011.15
2018-12-17T09:47:23.354Z,1011.19
2018-12-17T09:48:23.331Z,1011.17
2018-12-17T09:49:23.305Z,1011.22
2018-12-17T09:50:23.285Z,1011.17
2018-12-17T09:51:23.260Z,1011.19
2018-12-17T09:52:23.231Z,1011.18
2018-12-17T09:53:23.204Z,1011.21
2018-12-17T09:54:23.180Z,1011.20
2018-12-17T09:55:23.155Z,1011.26
2018-12-17T09:56:23.139Z,1011.24
2018-12-17T09:57:23.104Z,1011.25
2018-12-17T09:58:23.080Z,1011.28
2018-12-17T09:59:23.052Z,1011.24
2018-12-17T10:00:25.667Z,1011.23
2018-12-17T10:01:23.013Z,1011.23
2018-12-17T10:02:22.977Z,1011.23
2018-12-17T10:03:22.951Z,1011.26
2018-12-17T10:04:22.930Z,1011.25
2018-12-17T10:05:22.901Z,1011.23
2018-12-17T10:06:22.878Z,1011.25
2018-12-17T10:07:22.848Z,1011.25
2018-12-17T10:08:22.825Z,1011.24
2018-12-17T10:09:22.800Z,1011.24
2018-12-17T10:10:22.776Z,1011.25
2018-12-17T10:11:22.757Z,1011.25
2018-12-17T10:12:22.726Z,1011.23
2018-12-17T10:13:22.699Z,1011.22
2018-12-17T10:14:22.673Z,1011.23
2018-12-17T10:15:22.650Z,1011.23
2018-12-17T10:16:22.635Z,1011.24
2018-12-17T10:17:22.601Z,1011.20
2018-12-17T10:18:22.577Z,1011.21
2018-12-17T10:19:22.559Z,1011.18
2018-12-17T10:20:22.525Z,1011.19
2018-12-17T10:21:22.499Z,1011.14
2018-12-17T10:22:22.478Z,1011.16
2018-12-17T10:23:22.446Z,1011.12
2018-12-17T10:24:22.423Z,1011.16
2018-12-17T10:25:22.397Z,1011.09
2018-12-17T10:26:22.373Z,1011.10
2018-12-17T10:27:22.346Z,1011.12
2018-12-17T10:28:22.320Z,1011.12
2018-12-17T10:29:22.294Z,1011.09
2018-12-17T10:30:22.274Z,1011.07
2018-12-17T10:31:22.247Z,1011.04
2018-12-17T10:32:22.220Z,1011.08
2018-12-17T10:33:22.194Z,1011.06
2018-12-17T10:34:22.175Z,1011.09
2018-12-17T10:35:22.144Z,1011.04
2018-12-17T10:36:22.121Z,1011.05
2018-12-17T10:37:22.095Z,1011.07
2018-12-17T10:38:22.069Z,1011.08
2018-12-17T10:39:22.044Z,1011.07
2018-12-17T10:40:22.019Z,1011.08
2018-12-17T10:41:21.995Z,1011.08
2018-12-17T10:42:21.972Z,1011.08
2018-12-17T10:43:21.942Z,1011.10
2018-12-17T10:44:21.922Z,1011.09
2018-12-17T10:45:21.893Z,1011.08
2018-12-17T10:46:21.867Z,1011.10
2018-12-17T10:47:21.850Z,1011.08
2018-12-17T10:48:21.823Z,1011.08
2018-12-17T10:49:21.793Z,1011.09
2018-12-17T10:50:21.767Z,1011.05
2018-12-17T10:51:21.740Z,1011.07
2018-12-17T10:52:21.716Z,1011.09
2018-12-17T10:53:21.691Z,1011.05
2018-12-17T10:54:21.666Z,1011.04
2018-12-17T10:55:21.640Z,1011.07
2018-12-17T10:56:21.615Z,1011.06
2018-12-17T10:57:21.591Z,1011.09
2018-12-17T10:58:21.576Z,1011.09
2018-12-17T10:59:21.544Z,1011.09
2018-12-17T11:00:21.518Z,1011.07
2018-12-17T11:01:21.495Z,1011.08
2018-12-17T11:02:21.467Z,1011.09
2018-12-17T11:03:21.451Z,1011.08
2018-12-17T11:04:21.419Z,1011.06
2018-12-17T11:05:21.395Z,1011.08
2018-12-17T11:06:21.367Z,1011.11
2018-12-17T11:07:21.341Z,1011.11
2018-12-17T11:08:21.319Z,1011.09
2018-12-17T11:09:21.293Z,1011.12
2018-12-17T11:10:21.268Z,1011.13
2018-12-17T11:11:21.244Z,1011.13
2018-12-17T11:12:21.230Z,1011.14
2018-12-17T11:13:21.192Z,1011.15
2018-12-17T11:14:21.170Z,1011.12
2018-12-17T11:15:21.144Z,1011.15
2018-12-17T11:16:21.124Z,1011.12
2018-12-17T11:17:21.092Z,1011.15
2018-12-17T11:18:21.068Z,1011.16
2018-12-17T11:19:21.054Z,1011.20
2018-12-17T11:20:21.016Z,1011.18
2018-12-17T11:21:20.994Z,1011.18
2018-12-17T11:22:20.969Z,1011.18
2018-12-17T11:23:20.944Z,1011.20
2018-12-17T11:24:20.918Z,1011.17
2018-12-17T11:25:20.892Z,1011.14
2018-12-17T11:26:20.866Z,1011.21
2018-12-17T11:27:20.845Z,1011.21
2018-12-17T11:28:20.817Z,1011.18
2018-12-17T11:29:20.793Z,1011.19
2018-12-17T11:30:20.769Z,1011.17
2018-12-17T11:31:20.743Z,1011.15
2018-12-17T11:32:20.718Z,1011.17
2018-12-17T11:33:20.694Z,1011.13
2018-12-17T11:34:20.669Z,1011.12
2018-12-17T11:35:20.643Z,1011.10
2018-12-17T11:36:20.627Z,1011.12
2018-12-17T11:37:20.598Z,1011.12
2018-12-17T11:38:20.569Z,1011.14
2018-12-17T11:39:20.622Z,1011.11
2018-12-17T11:40:20.526Z,1011.12
2018-12-17T11:41:20.495Z,1011.14
2018-12-17T11:42:20.471Z,1011.15
2018-12-17T11:43:20.448Z,1011.14
2018-12-17T11:44:20.431Z,1011.15
2018-12-17T11:45:20.402Z,1011.12
2018-12-17T11:46:20.374Z,1011.09
2018-12-17T11:47:20.362Z,1011.11
2018-12-17T11:48:20.324Z,1011.11
2018-12-17T11:49:20.303Z,1011.12
2018-12-17T11:50:20.281Z,1011.15
2018-12-17T11:51:20.271Z,1011.16
2018-12-17T11:52:20.227Z,1011.16
2018-12-17T11:53:20.202Z,1011.14
2018-12-17T11:54:20.180Z,1011.19
2018-12-17T11:55:20.151Z,1011.24
2018-12-17T11:56:20.127Z,1011.22
2018-12-17T11:57:20.103Z,1011.24
2018-12-17T11:58:20.080Z,1011.19
2018-12-17T11:59:20.061Z,1011.20
2018-12-17T12:00:20.029Z,1011.24
2018-12-17T12:01:20.011Z,1011.22
2018-12-17T12:02:19.982Z,1011.21
2018-12-17T12:03:19.966Z,1011.20
2018-12-17T12:04:19.930Z,1011.24
2018-12-17T12:05:19.902Z,1011.25
2018-12-17T12:06:19.879Z,1011.24
2018-12-17T12:07:19.854Z,1011.29
2018-12-17T12:08:19.833Z,1011.24